Time;durP1;ratioP1;P1;durP2;ratioP2;P2;SDS_P1;SDS_P2;PMS_P1;PMS_P2;Temp;Humidity;BMP_temperature;BMP_pressure;BME280_temperature;BME280_humidity;BME280_pressure;Samples;Min_cycle;Max_cycle;Signal;HPM_P1;HPM_P2
2022/05/11 00:00:56;;;;;;;4.32;2.35;;;20.60;75.60;;;21.05;52.67;100771.94;5182833;28;20046;-84
2022/05/11 00:03:28;;;;;;;4.38;2.10;;;20.60;75.60;;;21.05;52.51;100774.59;5182860;28;20046;-83
2022/05/11 00:06:00;;;;;;;4.20;2.10;;;20.60;75.40;;;21.04;52.48;100780.78;5183471;28;20054;-82
2022/05/11 00:08:34;;;;;;;3.17;2.00;;;20.60;75.40;;;21.03;52.38;100776.38;5182257;28;20069;-82
2022/05/11 00:11:06;;;;;;;4.20;2.00;;;20.50;75.40;;;20.99;52.12;100766.69;5182991;28;20054;-82
2022/05/11 00:13:38;;;;;;;4.22;1.90;;;20.50;75.20;;;20.94;51.94;100768.50;5182444;28;20052;-82
2022/05/11 00:16:10;;;;;;;3.13;2.00;;;20.50;75.00;;;20.90;51.88;100770.28;5182995;28;20061;-83
2022/05/11 00:18:43;;;;;;;2.85;1.95;;;20.40;75.10;;;20.86;52.11;100777.41;5182852;28;20508;-82
2022/05/11 00:21:15;;;;;;;3.47;1.60;;;20.40;75.30;;;20.83;52.01;100763.28;5182790;28;20046;-85
2022/05/11 00:23:49;;;;;;;3.08;1.70;;;20.40;75.50;;;20.80;52.05;100764.22;5182661;28;20056;-84
2022/05/11 00:26:21;;;;;;;2.53;1.90;;;20.40;75.60;;;20.78;52.43;100760.66;5181156;28;20061;-84
2022/05/11 00:28:53;;;;;;;3.17;1.75;;;20.30;76.10;;;20.78;52.95;100760.66;5181522;28;20053;-85
2022/05/11 00:31:25;;;;;;;3.50;1.88;;;20.30;76.70;;;20.75;53.63;100749.22;5179902;28;20046;-84
2022/05/11 00:33:58;;;;;;;2.45;1.67;;;20.30;77.30;;;20.69;53.03;100747.50;5180362;28;20046;-83
2022/05/11 00:36:30;;;;;;;3.03;1.80;;;20.20;76.90;;;20.68;52.84;100751.03;5179401;28;20050;-83
2022/05/11 00:39:04;;;;;;;2.90;1.85;;;20.20;76.90;;;20.67;52.96;100757.25;5180982;28;20110;-84
2022/05/11 00:41:41;;;;;;;2.60;1.67;;;20.10;77.10;;;20.64;52.98;100759.88;5181080;28;20050;-84
2022/05/11 00:44:14;;;;;;;3.20;1.55;;;20.10;77.10;;;20.61;53.22;100754.63;5181156;28;20117;-84
2022/05/11 00:46:55;;;;;;;2.35;1.60;;;20.10;77.40;;;20.55;53.69;100741.44;5181806;28;20055;-84
2022/05/11 00:49:34;;;;;;;2.53;1.90;;;20.00;78.00;;;20.49;53.97;100744.13;5181619;28;20064;-85
2022/05/11 00:52:12;;;;;;;3.08;1.88;;;20.00;78.60;;;20.46;54.07;100736.19;5181372;28;20082;-84
2022/05/11 00:54:50;;;;;;;3.22;1.63;;;20.00;78.90;;;20.42;54.12;100734.44;5181403;28;20451;-84
2022/05/11 00:57:29;;;;;;;2.53;1.60;;;20.00;79.00;;;20.41;54.46;100730.00;5181033;28;20056;-84
2022/05/11 01:00:02;;;;;;;2.67;1.45;;;19.90;79.50;;;20.41;54.96;100728.25;5180794;28;20081;-84
2022/05/11 01:02:34;;;;;;;3.38;1.63;;;19.90;80.20;;;20.41;55.40;100728.25;5180542;28;20057;-84
2022/05/11 01:05:08;;;;;;;2.75;1.70;;;19.90;80.90;;;20.39;55.63;100716.78;5181807;28;20054;-83
2022/05/11 01:07:41;;;;;;;4.32;1.90;;;19.90;81.60;;;20.40;55.78;100722.94;5181087;28;20054;-84
2022/05/11 01:10:14;;;;;;;3.13;1.70;;;19.90;82.10;;;20.38;56.05;100719.44;5181143;28;20050;-84
2022/05/11 01:12:52;;;;;;;3.45;1.90;;;19.90;82.50;;;20.39;56.12;100723.84;5181770;28;20081;-84
2022/05/11 01:15:26;;;;;;;3.30;1.70;;;19.90;82.90;;;20.39;56.07;100718.53;5181735;28;20060;-84
2022/05/11 01:17:58;;;;;;;2.63;2.03;;;19.90;83.10;;;20.40;56.02;100715.00;5181665;28;20069;-85
2022/05/11 01:20:35;;;;;;;2.75;1.88;;;19.90;83.30;;;20.42;56.38;100713.25;5185692;28;20081;-82
2022/05/11 01:23:16;;;;;;;2.63;1.92;;;19.90;83.80;;;20.40;56.78;100715.00;5187180;28;20070;-83
2022/05/11 01:25:49;;;;;;;3.95;1.80;;;19.90;84.60;;;20.37;57.29;100715.03;5189400;28;20061;-84
2022/05/11 01:28:22;;;;;;;2.58;1.80;;;19.90;85.60;;;20.35;57.89;100716.81;5189877;28;20050;-84
2022/05/11 01:31:03;;;;;;;2.72;1.42;;;19.80;86.70;;;20.31;58.20;100716.84;5185510;28;20050;-83
2022/05/11 01:33:38;;;;;;;4.10;1.88;;;19.80;87.40;;;20.30;58.73;100709.78;5185067;28;20145;-84
2022/05/11 01:36:21;;;;;;;3.75;1.67;;;19.80;88.60;;;20.25;59.19;100711.56;5185516;28;20058;-85
2022/05/11 01:38:56;;;;;;;2.42;1.80;;;19.80;89.80;;;20.20;59.45;100708.06;5186210;28;20054;-83
2022/05/11 01:41:35;;;;;;;3.58;1.73;;;19.70;90.30;;;20.19;59.59;100703.66;5185646;28;20154;-85
2022/05/11 01:44:12;;;;;;;3.25;2.20;;;19.70;90.70;;;20.19;59.54;100701.03;5185647;28;20404;-84
2022/05/11 01:46:47;;;;;;;3.03;1.70;;;19.70;91.00;;;20.19;59.43;100698.38;5185618;28;20050;-84
2022/05/11 01:49:21;;;;;;;4.10;2.00;;;19.70;91.30;;;20.17;59.07;100697.50;5185340;28;20054;-85
2022/05/11 01:51:53;;;;;;;2.67;1.75;;;19.70;91.20;;;20.13;59.42;100694.88;5184582;28;20112;-84
2022/05/11 01:54:26;;;;;;;3.80;2.03;;;19.70;91.50;;;20.10;59.88;100690.50;5185584;28;20138;-84
2022/05/11 01:57:00;;;;;;;4.18;1.88;;;19.60;92.00;;;20.09;59.82;100678.16;5185235;28;20046;-84
2022/05/11 01:59:32;;;;;;;2.17;1.83;;;19.60;92.30;;;20.08;58.90;100686.97;5184390;28;20054;-84
2022/05/11 02:02:04;;;;;;;3.88;2.10;;;19.60;91.90;;;20.09;58.96;100688.75;5185187;28;20046;-83
2022/05/11 02:10:15;;;;;;;2.28;1.95;;;19.60;92.00;;;20.09;58.99;100672.88;5185554;28;20092;-83
2022/05/11 02:12:50;;;;;;;2.20;2.00;;;19.60;92.30;;;20.04;59.47;100678.19;5185511;28;20073;-84
2022/05/11 02:15:22;;;;;;;3.15;2.03;;;19.60;92.60;;;20.02;59.83;100679.09;5186595;28;20069;-83
2022/05/11 02:17:55;;;;;;;2.42;1.75;;;19.50;93.10;;;19.98;60.40;100669.41;5186604;28;20056;-85
2022/05/11 02:20:27;;;;;;;2.40;1.90;;;19.50;93.50;;;19.94;60.08;100667.66;5187868;28;20053;-83
2022/05/11 02:23:00;;;;;;;2.03;1.75;;;19.40;93.30;;;19.91;59.29;100662.41;5186440;28;20106;-83
2022/05/11 02:25:31;;;;;;;3.25;1.80;;;19.40;92.90;;;19.90;59.44;100671.22;5184224;28;20056;-84
2022/05/11 02:28:05;;;;;;;2.85;1.95;;;19.40;93.10;;;19.88;59.95;100671.19;5185382;28;20046;-83
2022/05/11 02:30:38;;;;;;;2.85;2.13;;;19.40;93.60;;;19.86;60.68;100666.81;5185142;28;20050;-83
2022/05/11 02:33:10;;;;;;;3.53;2.33;;;19.40;94.00;;;19.83;60.56;100658.91;5184336;28;20046;-85
2022/05/11 02:35:44;;;;;;;2.55;2.05;;;19.40;94.20;;;19.77;61.16;100655.41;5185079;28;20118;-83
2022/05/11 02:38:18;;;;;;;2.97;1.90;;;19.30;94.60;;;19.72;61.59;100659.84;5185692;28;20483;-84
2022/05/11 02:40:51;;;;;;;;;;;19.20;94.90;;;19.68;60.69;100655.44;5186112;28;20077;-84
2022/05/11 02:43:24;;;;;;;4.68;2.60;;;19.20;94.60;;;19.66;60.22;100657.22;5185422;28;20343;-82
2022/05/11 02:45:56;;;;;;;2.78;1.77;;;19.20;94.30;;;19.63;60.56;100651.09;5179483;28;20060;-82
2022/05/11 02:48:31;;;;;;;2.63;2.08;;;19.20;94.50;;;19.59;61.09;100650.19;5178577;28;20050;-83
2022/05/11 02:51:04;;;;;;;3.28;2.30;;;19.10;94.90;;;19.54;61.77;100641.38;5183710;28;20057;-82
2022/05/11 02:53:36;;;;;;;2.72;1.92;;;19.10;95.50;;;19.50;61.34;100644.94;5183549;28;20477;-82
2022/05/11 02:56:08;;;;;;;5.03;2.10;;;19.10;95.60;;;19.48;61.27;100644.03;5183804;28;20054;-84
2022/05/11 02:58:41;;;;;;;3.17;1.80;;;19.00;95.30;;;19.48;61.33;100636.09;5183281;28;20141;-83
2022/05/11 03:01:15;;;;;;;3.90;1.88;;;19.00;95.40;;;19.47;61.01;100623.78;5182933;28;20042;-83
2022/05/11 03:03:47;;;;;;;3.30;1.90;;;19.00;95.30;;;19.43;61.33;100630.88;5183433;28;20046;-83
2022/05/11 03:06:19;;;;;;;4.03;2.17;;;19.00;95.50;;;19.41;61.46;100619.41;5183454;28;20046;-85
2022/05/11 03:08:51;;;;;;;4.00;2.25;;;19.00;95.60;;;19.38;61.59;100624.72;5182456;28;20057;-84
2022/05/11 03:11:23;;;;;;;2.47;1.90;;;18.90;95.80;;;19.39;62.00;100625.59;5182520;28;20239;-83
2022/05/11 03:13:56;;;;;;;2.22;1.80;;;18.90;96.00;;;19.36;62.19;100625.59;5182538;28;20064;-82
2022/05/11 03:16:28;;;;;;;3.92;1.98;;;18.90;96.30;;;19.33;61.98;100615.91;5175502;28;20050;-84
2022/05/11 03:19:01;;;;;;;3.28;2.25;;;18.90;96.20;;;19.33;61.70;100605.34;5172732;28;20057;-84
2022/05/11 03:21:34;;;;;;;3.47;2.38;;;18.90;96.10;;;19.30;61.27;100604.47;5171718;28;20073;-84
2022/05/11 03:24:07;;;;;;;3.33;2.30;;;18.90;95.70;;;19.28;61.10;100603.59;5172065;28;20058;-85
2022/05/11 03:26:39;;;;;;;2.65;2.40;;;18.80;95.70;;;19.27;61.38;100604.47;5171500;28;20056;-84
2022/05/11 03:29:12;;;;;;;6.72;2.70;;;18.80;95.70;;;19.28;61.37;100596.53;5171735;28;20511;-84
2022/05/11 03:34:36;;;;;;;4.50;2.88;;;18.80;95.80;;;19.25;61.16;100592.16;5171724;28;20050;-84
2022/05/11 03:34:39;;;;;;;4.82;2.50;;;18.80;95.70;;;19.18;61.41;100582.50;5171301;28;20074;-83
2022/05/11 03:37:15;;;;;;;3.47;2.80;;;18.80;95.70;;;19.16;61.61;100597.47;5171088;28;20050;-83
2022/05/11 03:39:47;;;;;;;6.22;3.58;;;18.80;95.80;;;19.16;61.74;100589.53;5170747;28;20042;-83
2022/05/11 03:42:22;;;;;;;4.60;2.80;;;18.80;96.00;;;19.16;61.79;100584.25;5170445;28;20047;-84
2022/05/11 03:44:56;;;;;;;4.75;2.08;;;18.80;96.10;;;19.16;61.99;100589.53;5170937;28;20138;-85
2022/05/11 03:47:28;;;;;;;5.22;2.60;;;18.80;96.20;;;19.17;62.71;100593.06;5171807;28;20054;-84
2022/05/11 03:50:00;;;;;;;3.38;2.20;;;18.80;96.70;;;19.17;62.84;100580.75;5170527;28;20053;-84
2022/05/11 03:52:32;;;;;;;4.22;2.65;;;18.80;96.80;;;19.17;62.57;100583.41;5170519;28;20054;-84
2022/05/11 03:55:08;;;;;;;7.00;2.53;;;18.80;96.80;;;19.13;62.94;100578.13;5170758;28;20058;-86
2022/05/11 03:57:42;;;;;;;6.88;3.03;;;18.70;96.90;;;19.06;63.11;100589.59;5170227;28;20050;-85
2022/05/11 04:00:20;;;;;;;5.53;3.10;;;18.70;97.00;;;19.06;63.40;100579.03;5269683;23;20057;-69
2022/05/11 04:02:55;;;;;;;4.82;2.78;;;18.70;97.20;;;19.06;63.73;100573.75;5155162;28;20486;-69
2022/05/11 04:05:28;;;;;;;4.93;2.70;;;18.70;97.40;;;19.03;64.06;100574.59;5164310;28;20054;-69
2022/05/11 04:08:00;;;;;;;4.97;2.42;;;18.70;97.70;;;19.00;64.38;100577.28;5163978;28;20450;-68
2022/05/11 04:10:33;;;;;;;6.03;2.95;;;18.60;98.00;;;18.99;64.60;100578.16;5164308;28;20053;-68
2022/05/11 04:13:06;;;;;;;7.97;3.63;;;18.60;98.20;;;18.96;64.75;100570.22;5163814;28;20141;-68
2022/05/11 04:15:39;;;;;;;4.72;3.03;;;18.50;98.30;;;18.93;65.10;100567.63;5164313;28;20510;-68
2022/05/11 04:18:11;;;;;;;4.78;3.33;;;18.60;98.60;;;18.93;65.34;100567.63;5159223;28;20442;-69
2022/05/11 04:20:43;;;;;;;6.65;3.78;;;18.50;98.70;;;18.91;65.38;100564.13;5163800;28;20740;-69
2022/05/11 04:23:16;;;;;;;9.15;3.50;;;18.50;98.80;;;18.91;65.52;100564.13;5163700;28;20505;-68
2022/05/11 04:25:48;;;;;;;8.75;4.43;;;18.50;98.90;;;18.89;65.73;100560.56;5164305;28;20388;-68
2022/05/11 04:28:20;;;;;;;5.68;4.03;;;18.60;99.10;;;18.87;66.02;100557.06;5160013;28;20491;-68
2022/05/11 04:31:01;;;;;;;5.85;2.92;;;18.50;99.20;;;18.90;66.10;100557.91;5163631;28;20050;-68
2022/05/11 04:33:34;;;;;;;6.60;3.53;;;18.50;99.30;;;18.93;66.07;100557.94;5162152;28;20057;-69
2022/05/11 04:36:07;;;;;;;6.50;3.45;;;18.60;99.40;;;18.95;65.88;100568.47;5164010;28;20042;-69
2022/05/11 04:38:39;;;;;;;5.90;3.22;;;18.60;99.30;;;18.95;65.92;100561.44;5163681;28;20061;-68
2022/05/11 04:41:11;;;;;;;7.70;4.40;;;18.60;99.30;;;18.98;65.69;100564.09;5163983;28;20077;-69
2022/05/11 04:43:43;;;;;;;6.05;3.30;;;18.60;99.20;;;19.01;65.86;100559.66;5163343;28;20047;-68
2022/05/11 04:46:16;;;;;;;5.88;3.38;;;18.60;99.20;;;19.04;65.72;100568.47;5163912;28;20406;-68
2022/05/11 04:48:48;;;;;;;7.45;3.60;;;18.70;99.10;;;19.07;65.39;100565.81;5163483;28;20046;-68
2022/05/11 04:51:20;;;;;;;7.65;4.22;;;18.70;99.10;;;19.11;65.20;100570.19;5164087;28;20501;-69
2022/05/11 04:53:52;;;;;;;7.07;4.10;;;18.70;99.00;;;19.14;65.12;100566.66;5164738;28;20137;-69
2022/05/11 04:56:24;;;;;;;7.50;3.83;;;18.70;98.90;;;19.16;65.18;100573.69;5160108;28;20522;-68
2022/05/11 04:58:58;;;;;;;7.10;3.47;;;18.80;99.00;;;19.19;64.96;100575.44;5167942;28;20049;-68
2022/05/11 05:01:32;;;;;;;5.78;3.95;;;18.80;98.90;;;19.17;64.85;100572.81;5167418;28;20050;-68
2022/05/11 05:04:05;;;;;;;6.10;3.67;;;18.80;98.70;;;19.17;64.77;100575.47;5167659;28;20046;-69
2022/05/11 05:06:38;;;;;;;5.18;3.15;;;18.80;98.70;;;19.23;64.71;100574.53;5168249;28;20529;-69
2022/05/11 05:09:10;;;;;;;5.85;3.15;;;18.80;98.70;;;19.31;64.53;100574.53;5168296;28;20098;-68
2022/05/11 05:11:42;;;;;;;6.80;4.30;;;18.90;98.60;;;19.46;64.67;100580.59;5167418;28;20047;-68
2022/05/11 05:14:14;;;;;;;8.52;4.88;;;19.00;98.80;;;19.70;64.87;100587.56;5167855;28;20050;-69
2022/05/11 05:16:47;;;;;;;8.90;4.70;;;19.10;99.00;;;19.99;63.85;100578.56;5167263;28;20050;-69
2022/05/11 05:19:20;;;;;;;8.25;5.07;;;19.40;98.60;;;20.30;62.22;100581.84;5167680;28;20050;-68
2022/05/11 05:21:52;;;;;;;8.30;4.70;;;19.70;97.80;;;20.65;60.55;100584.22;5167230;28;20495;-68
2022/05/11 05:24:24;;;;;;;8.27;4.47;;;20.00;96.90;;;20.97;59.31;100585.66;5167511;28;20051;-68
2022/05/11 05:26:56;;;;;;;9.05;5.55;;;20.30;96.10;;;21.23;58.25;100586.22;5167562;28;20411;-68
2022/05/11 05:32:20;;;;;;;8.43;4.43;;;20.80;94.50;;;21.57;56.35;100588.47;5168187;28;20058;-68
2022/05/11 05:34:52;;;;;;;7.88;4.72;;;20.90;93.70;;;21.73;56.56;100590.03;5160580;28;20133;-67
2022/05/11 05:37:25;;;;;;;6.55;4.88;;;21.10;93.70;;;21.92;55.51;100598.59;5167273;28;20195;-68
2022/05/11 05:39:56;;;;;;;6.60;4.95;;;21.20;93.00;;;22.12;55.44;100593.03;5162624;28;20176;-68
2022/05/11 05:42:30;;;;;;;8.07;4.05;;;21.40;92.90;;;22.36;54.08;100594.38;5150320;28;20038;-68
2022/05/11 05:45:02;;;;;;;7.40;3.95;;;21.60;91.90;;;22.60;53.12;100595.75;5167879;28;20162;-67
2022/05/11 05:47:36;;;;;;;6.60;3.92;;;21.80;91.20;;;22.77;52.42;100598.97;5167686;28;20478;-70
2022/05/11 05:50:10;;;;;;;6.68;3.70;;;22.00;90.40;;;22.81;51.46;100595.34;5167144;28;20451;-67
2022/05/11 05:52:42;;;;;;;6.30;3.97;;;22.10;88.90;;;22.88;50.54;100602.31;5167041;28;20054;-69
2022/05/11 05:55:15;;;;;;;6.07;3.63;;;22.20;87.20;;;23.01;50.37;100593.22;5167369;28;20065;-69
2022/05/11 05:57:48;;;;;;;8.32;3.97;;;22.30;86.70;;;23.17;49.81;100599.13;5167231;28;20052;-69
2022/05/11 06:00:21;;;;;;;5.60;4.50;;;22.40;85.20;;;23.41;49.65;100595.09;5166927;28;20427;-68
2022/05/11 06:02:55;;;;;;;7.63;3.90;;;22.60;85.30;;;23.66;48.83;100602.56;5166601;28;20054;-67
2022/05/11 06:05:28;;;;;;;7.22;3.85;;;22.80;83.50;;;23.92;47.58;100604.63;5166786;28;20054;-69
2022/05/11 06:08:00;;;;;;;5.93;3.42;;;23.10;81.30;;;24.16;47.10;100605.84;5167390;28;20050;-71
2022/05/11 06:10:34;;;;;;;8.48;3.92;;;23.30;80.60;;;24.34;45.92;100605.44;5167376;28;20057;-68
2022/05/11 06:13:07;;;;;;;5.88;3.30;;;23.50;78.20;;;24.49;45.74;100607.72;5167419;28;20050;-71
2022/05/11 06:15:41;;;;;;;6.30;3.55;;;23.60;77.10;;;24.62;44.49;100602.94;5167882;28;20073;-67
2022/05/11 06:18:14;;;;;;;6.40;3.38;;;23.70;75.40;;;24.70;44.60;100598.28;5167355;28;20054;-66
2022/05/11 06:20:51;;;;;;;5.43;3.53;;;23.90;74.90;;;24.84;44.41;100597.91;5167568;28;20054;-68
2022/05/11 06:23:23;;;;;;;5.53;3.33;;;24.00;74.10;;;25.00;44.47;100603.72;5166640;28;20043;-66
2022/05/11 06:25:55;;;;;;;6.18;3.40;;;24.10;74.40;;;25.14;44.41;100594.44;5167169;28;20518;-59
2022/05/11 06:28:28;;;;;;;6.00;3.40;;;24.30;73.80;;;25.31;43.28;100598.41;5167032;28;20618;-58
2022/05/11 06:31:00;;;;;;;6.13;3.55;;;24.40;72.60;;;25.47;43.16;100594.38;5166268;28;20512;-57
2022/05/11 06:33:34;;;;;;;5.22;3.42;;;24.60;72.10;;;25.61;42.73;100591.28;5165952;28;20072;-58
2022/05/11 06:36:08;;;;;;;5.18;3.33;;;24.70;71.30;;;25.75;42.67;100589.09;5161604;28;20054;-62
2022/05/11 06:38:40;;;;;;;6.25;3.28;;;24.90;71.00;;;25.81;42.65;100588.03;5158093;28;20053;-67
2022/05/11 06:41:15;;;;;;;5.15;3.45;;;24.90;70.60;;;25.85;42.64;100585.22;5160887;28;20085;-66
2022/05/11 06:43:49;;;;;;;4.40;3.22;;;25.00;70.50;;;25.82;42.85;100582.66;5164778;28;20064;-66
2022/05/11 06:46:21;;;;;;;5.32;3.42;;;25.00;70.50;;;25.78;42.69;100593.47;5149390;28;20050;-67
2022/05/11 06:48:55;;;;;;;4.93;3.35;;;24.90;70.20;;;25.71;42.50;100585.63;5165047;28;20046;-68
2022/05/11 06:51:27;;;;;;;8.63;3.40;;;24.90;70.00;;;25.68;43.23;100587.50;5165916;28;20061;-65
2022/05/11 06:59:38;;;;;;;5.97;2.95;;;24.80;70.70;;;25.70;42.92;100575.00;5164351;28;20073;-67
2022/05/11 07:02:10;;;;;;;4.90;3.00;;;24.80;70.10;;;25.70;43.35;100581.22;5158607;28;20066;-68
2022/05/11 07:04:44;;;;;;;5.07;2.70;;;24.80;70.40;;;25.79;43.19;100579.19;5154110;28;20172;-67
2022/05/11 07:07:18;;;;;;;4.68;2.78;;;24.90;70.40;;;25.90;42.92;100571.75;5144392;28;20504;-67
2022/05/11 07:09:49;;;;;;;4.90;3.45;;;24.90;70.20;;;25.94;42.77;100568.91;5147772;28;20127;-66
2022/05/11 07:12:24;;;;;;;5.68;3.20;;;25.00;69.80;;;26.03;42.55;100577.56;5164963;28;20060;-69
2022/05/11 07:14:57;;;;;;;5.15;2.92;;;25.00;69.60;;;26.05;42.62;100571.22;5165308;28;20050;-67
2022/05/11 07:17:33;;;;;;;6.97;3.13;;;25.10;69.40;;;26.16;42.33;100570.91;5164398;28;20100;-68
2022/05/11 07:20:11;;;;;;;5.00;3.03;;;25.20;69.40;;;26.26;42.01;100564.28;5165595;28;20057;-67
2022/05/11 07:22:43;;;;;;;4.82;3.03;;;25.20;69.00;;;26.32;41.73;100563.22;5164789;28;20054;-67
2022/05/11 07:25:18;;;;;;;4.97;3.20;;;25.30;68.70;;;26.47;41.81;100562.72;5164868;28;20051;-66
2022/05/11 07:27:51;;;;;;;5.88;3.13;;;25.40;68.70;;;26.58;41.40;100563.22;5165074;28;20050;-65
2022/05/11 07:30:26;;;;;;;4.50;3.30;;;25.50;68.30;;;26.67;41.40;100560.25;5164934;28;20081;-67
2022/05/11 07:32:58;;;;;;;4.50;3.05;;;25.60;68.10;;;26.77;41.53;100556.31;5164926;28;20475;-66
2022/05/11 07:35:32;;;;;;;5.07;3.05;;;25.70;68.30;;;26.88;41.15;100549.72;5165124;28;20050;-67
2022/05/11 07:38:08;;;;;;;4.10;2.40;;;25.80;67.80;;;26.98;40.97;100553.78;5164962;28;20050;-66
2022/05/11 07:40:41;;;;;;;5.57;2.67;;;25.90;67.60;;;27.12;40.62;100551.50;5165072;28;20111;-66
2022/05/11 07:43:13;;;;;;;4.53;2.53;;;26.00;67.20;;;27.27;40.64;100550.94;5164551;28;20065;-65
2022/05/11 07:45:46;;;;;;;4.80;2.80;;;26.10;67.10;;;27.43;40.62;100550.34;5160183;28;20051;-67
2022/05/11 07:48:21;;;;;;;3.75;2.90;;;26.20;67.20;;;27.56;40.73;100549.78;5161935;28;20051;-67
2022/05/11 07:50:55;;;;;;;4.95;2.75;;;26.30;67.40;;;27.73;40.85;100556.34;5164675;28;20077;-65
2022/05/11 07:53:28;;;;;;;3.95;2.78;;;26.50;67.70;;;27.94;40.11;100552.78;5164542;28;20480;-65
2022/05/11 08:01:40;;;;;;;3.58;2.42;;;26.90;66.10;;;28.65;39.73;100546.22;5164088;28;20124;-65
2022/05/11 08:04:12;;;;;;;4.47;2.60;;;27.10;66.80;;;28.95;38.57;100542.25;5164700;28;20484;-67
2022/05/11 08:06:46;;;;;;;4.72;2.60;;;27.30;66.00;;;29.26;37.00;100537.22;5164734;28;20072;-65
2022/05/11 08:09:18;;;;;;;3.15;2.38;;;27.50;64.60;;;29.64;36.32;100542.63;5164472;28;20046;-67
2022/05/11 08:11:52;;;;;;;2.60;2.22;;;27.70;63.60;;;30.20;35.22;100536.31;5163658;28;20058;-66
2022/05/11 08:14:24;;;;;;;3.50;2.15;;;28.00;62.80;;;30.68;34.64;100535.63;5165363;28;20074;-66
2022/05/11 08:16:56;;;;;;;3.90;2.15;;;28.30;62.00;;;31.31;33.24;100543.03;5164567;28;20050;-66
2022/05/11 08:19:29;;;;;;;4.15;2.40;;;28.60;60.70;;;31.98;31.42;100541.91;5164335;28;20499;-67
2022/05/11 08:22:02;;;;;;;2.40;2.10;;;29.00;58.30;;;32.68;30.14;100540.44;5164143;28;20056;-67
2022/05/11 08:24:34;;;;;;;2.50;2.10;;;29.40;57.50;;;33.42;28.85;100538.56;5163230;28;20414;-67
2022/05/11 08:27:09;;;;;;;3.83;1.90;;;29.70;56.40;;;34.19;27.93;100539.81;5158755;28;20112;-68
2022/05/11 08:35:20;;;;;;;4.28;2.08;;;31.10;55.80;;;36.73;26.08;100530.31;5158717;28;20644;-68
2022/05/11 08:37:54;;;;;;;4.55;2.20;;;31.80;55.00;;;37.54;25.34;100531.94;5159970;28;20053;-68
2022/05/11 08:40:41;;;;;;;3.25;2.08;;;32.60;54.00;;;38.18;23.93;100528.44;5162190;28;20720;-66
2022/05/11 08:43:17;;;;;;;4.88;2.03;;;33.30;51.90;;;38.96;22.64;100533.47;5162397;28;20054;-68
2022/05/11 08:45:56;;;;;;;1.70;1.60;;;34.10;50.20;;;39.25;22.00;100533.63;5164955;28;20482;-68
2022/05/11 08:48:39;;;;;;;;;;;34.60;48.90;;;39.52;20.97;100543.91;5164655;28;20050;-67
2022/05/11 08:51:19;;;;;;;5.65;1.88;;;35.00;47.00;;;39.91;20.66;100537.66;5164149;28;19922;-66
2022/05/11 08:54:14;;;;;;;3.55;1.98;;;35.40;46.40;;;40.20;20.14;100535.00;5164441;28;20051;-67
2022/05/11 08:56:46;;;;;;;2.70;1.65;;;35.80;45.80;;;40.47;20.16;100535.16;5164809;28;20572;-68
2022/05/11 08:59:23;;;;;;;2.45;1.80;;;36.00;45.40;;;40.62;20.00;100525.47;5164393;28;20508;-68
2022/05/11 09:02:00;;;;;;;2.17;1.80;;;36.20;45.30;;;40.85;20.22;100519.69;5163884;28;20082;-68
2022/05/11 09:04:41;;;;;;;2.67;2.10;;;36.30;45.20;;;40.61;20.28;100515.56;5164672;28;20050;-67
2022/05/11 09:07:14;;;;;;;3.30;2.20;;;36.30;45.50;;;40.30;20.77;100524.91;5163978;28;20065;-67
2022/05/11 09:09:48;;;;;;;6.60;2.60;;;36.10;45.80;;;39.49;21.30;100518.78;5164104;28;20050;-68
2022/05/11 09:12:20;;;;;;;3.85;2.22;;;35.70;45.40;;;38.61;22.41;100516.63;5163738;28;20054;-69
2022/05/11 09:14:56;;;;;;;3.13;2.40;;;35.10;46.60;;;37.98;23.06;100511.09;5164548;28;20053;-69
2022/05/11 09:17:31;;;;;;;2.80;2.22;;;34.60;47.10;;;37.25;24.10;100507.13;5164332;28;20411;-70
2022/05/11 09:20:07;;;;;;;2.30;2.10;;;34.20;47.70;;;36.67;24.58;100500.91;5158647;28;20057;-59
2022/05/11 09:22:43;;;;;;;2.92;2.20;;;33.90;48.20;;;35.83;25.33;100502.81;5160367;28;20049;-59
2022/05/11 09:25:22;;;;;;;3.00;2.50;;;33.50;48.00;;;34.94;26.19;100496.72;5163661;28;20050;-60
2022/05/11 09:28:14;;;;;;;3.20;2.22;;;33.00;48.40;;;33.97;27.43;100492.59;5159103;28;20072;-59
2022/05/11 09:31:02;;;;;;;3.67;2.22;;;32.50;49.10;;;32.96;28.78;100492.88;5162329;28;20046;-59
2022/05/11 09:33:38;;;;;;;4.13;2.10;;;31.70;49.80;;;32.19;29.96;100482.28;5162202;28;20050;-59
2022/05/11 09:36:12;;;;;;;2.95;2.28;;;31.10;50.80;;;31.85;30.99;100489.69;5137352;28;20134;-59
2022/05/11 09:38:46;;;;;;;2.92;2.30;;;30.70;52.00;;;31.55;31.43;100493.16;5163997;28;20061;-60
2022/05/11 09:41:30;;;;;;;3.83;2.53;;;30.40;52.40;;;31.27;32.04;100477.69;5165776;28;20081;-58
2022/05/11 09:44:19;;;;;;;2.83;2.33;;;30.10;52.90;;;31.06;32.23;100484.25;5166491;28;20046;-61
2022/05/11 09:46:52;;;;;;;4.50;2.00;;;29.90;53.10;;;31.08;32.22;100483.19;5165876;28;20046;-57
2022/05/11 09:49:28;;;;;;;4.30;2.80;;;29.90;53.20;;;30.98;32.47;100476.59;5167234;28;20412;-63
2022/05/11 09:52:01;;;;;;;4.05;3.00;;;29.80;53.50;;;30.91;32.61;100477.91;5167139;28;20478;-67
2022/05/11 09:54:38;;;;;;;3.00;2.25;;;29.80;53.80;;;30.72;33.17;100469.09;5167972;28;20505;-67
2022/05/11 09:57:27;;;;;;;4.28;2.70;;;29.60;54.00;;;30.69;33.01;100467.41;5166915;28;20054;-69
2022/05/11 10:02:37;;;;;;;4.28;2.60;;;29.70;54.60;;;30.86;33.82;100469.19;5195397;28;20050;-86
2022/05/11 10:05:15;;;;;;;5.50;2.70;;;29.70;55.00;;;31.01;33.84;100471.03;5206369;28;20416;-87
2022/05/11 10:07:51;;;;;;;3.60;2.50;;;29.80;55.30;;;31.11;33.38;100466.03;5201996;28;20089;-85
2022/05/11 10:10:28;;;;;;;4.05;2.33;;;29.90;54.50;;;31.14;33.21;100456.91;5203550;28;20050;-87
2022/05/11 10:13:15;;;;;;;3.22;2.30;;;29.90;54.40;;;31.23;33.15;100467.13;5204323;28;20118;-86
2022/05/11 10:21:56;;;;;;;4.43;2.55;;;29.90;54.00;;;31.05;33.06;100456.47;5192321;28;20463;-82
2022/05/11 10:24:41;;;;;;;3.40;2.53;;;29.90;54.30;;;31.00;32.84;100458.53;5193548;28;20434;-84
2022/05/11 10:27:20;;;;;;;4.63;2.72;;;29.90;53.80;;;30.87;33.33;100457.47;5193457;28;20050;-82
2022/05/11 10:30:10;;;;;;;4.28;2.30;;;29.80;54.40;;;30.82;33.33;100448.78;5196544;28;20060;-85
2022/05/11 10:33:18;;;;;;;5.95;2.60;;;29.70;54.50;;;30.85;33.33;100447.75;5199233;28;20125;-86
2022/05/11 10:36:01;;;;;;;3.65;2.25;;;29.70;54.50;;;30.95;33.23;100440.91;5182798;28;20129;-85
2022/05/11 10:38:44;;;;;;;2.53;2.15;;;29.70;54.70;;;30.93;33.59;100446.38;5202299;28;20041;-84
2022/05/11 10:41:29;;;;;;;5.60;2.70;;;29.80;54.60;;;30.94;33.19;100437.34;5211204;28;20049;-84
2022/05/11 10:44:08;;;;;;;3.35;2.33;;;29.80;54.50;;;30.92;34.06;100433.00;5210174;28;20046;-85
2022/05/11 10:46:52;;;;;;;2.58;2.22;;;29.80;55.10;;;30.98;33.61;100433.53;5182283;28;20081;-84
2022/05/11 10:49:47;;;;;;;11.07;3.45;;;29.80;54.90;;;31.03;33.05;100442.19;5205845;28;20060;-84
2022/05/11 10:52:40;;;;;;;6.65;3.55;;;29.90;54.10;;;30.80;33.50;100430.03;5215268;28;20049;-85
2022/05/11 10:55:25;;;;;;;5.70;2.95;;;29.70;54.50;;;30.73;33.43;100428.63;5215037;28;20091;-85
2022/05/11 10:58:17;;;;;;;5.03;2.63;;;29.70;54.70;;;30.72;34.10;100421.53;5217817;28;20503;-85
2022/05/11 11:00:57;;;;;;;6.22;3.20;;;29.60;55.00;;;30.70;33.69;100422.53;5216984;28;20518;-85
2022/05/11 11:04:08;;;;;;;5.78;3.30;;;29.60;55.10;;;30.57;34.34;100421.44;5215934;28;20049;-85
2022/05/11 11:07:13;;;;;;;4.53;2.88;;;29.50;55.60;;;30.84;34.29;100414.56;5217259;28;20400;-84
2022/05/11 11:10:19;;;;;;;5.90;2.78;;;29.70;55.90;;;31.02;33.83;100410.00;5200136;28;20049;-85
2022/05/11 11:13:15;;;;;;;6.85;3.33;;;29.80;55.30;;;30.96;33.61;100403.13;5209297;28;20060;-83
2022/05/11 11:15:48;;;;;;;4.78;2.53;;;29.80;55.00;;;31.01;33.76;100392.13;5218912;28;20049;-80
2022/05/11 11:18:30;;;;;;;5.57;3.08;;;29.80;55.00;;;31.00;33.59;100398.47;5213447;28;20053;-81
2022/05/11 11:21:05;;;;;;;4.43;2.60;;;29.90;54.70;;;30.88;33.87;100402.69;5218436;28;20060;-84